Terminal Aerodrome Forecast
Issued by NWS Austin/San Antonio, TX

Current Version | Previous Version | Text Only | Print | Product List | Glossary On
Versions: 1 2 3 4 5 6 7 8 9 10 11 12 13
000
FTUS44 KEWX 310803 AAA
TAFSAT
TAF AMD
KSAT 310803Z 3108/0112 17006KT P6SM SCT015 BKN035
      TEMPO 3110/3114 BKN012
     FM311500 16010KT P6SM SCT070 SCT250=

USA.gov is the U.S. government's official web portal to all federal, state and local government web resources and services.